Time;durP1;ratioP1;P1;durP2;ratioP2;P2;SDS_P1;SDS_P2;PMS_P1;PMS_P2;Temp;Humidity;BMP_temperature;BMP_pressure;BME280_temperature;BME280_humidity;BME280_pressure;Samples;Min_cycle;Max_cycle;Signal;HPM_P1;HPM_P2
2022/10/26 00:00:04;;;;;;;12.15;7.05;;;;;;;;;;5081721;28;20052;-60
2022/10/26 00:02:31;;;;;;;7.13;5.88;;;;;;;;;;5063814;28;20460;-60
2022/10/26 00:04:58;;;;;;;7.85;5.78;;;;;;;;;;5084372;28;20052;-61
2022/10/26 00:07:24;;;;;;;12.27;6.10;;;;;;;;;;5081507;28;20048;-61
2022/10/26 00:09:51;;;;;;;11.75;5.88;;;;;;;;;;5075955;28;20155;-61
2022/10/26 00:12:17;;;;;;;10.73;6.25;;;;;;;;;;5069031;28;20059;-61
2022/10/26 00:14:43;;;;;;;7.53;5.57;;;;;;;;;;5078264;28;20045;-60
2022/10/26 00:17:09;;;;;;;11.30;6.60;;;;;;;;;;5080104;28;20141;-61
2022/10/26 00:19:37;;;;;;;10.27;5.80;;;;;;;;;;5064660;28;20057;-60
2022/10/26 00:22:03;;;;;;;8.70;6.00;;;;;;;;;;5081934;28;20534;-61
2022/10/26 00:24:29;;;;;;;9.13;6.55;;;;;;;;;;5081535;28;20549;-61
2022/10/26 00:26:55;;;;;;;8.38;5.90;;;;;;;;;;5077990;28;20055;-61
2022/10/26 00:29:22;;;;;;;12.65;6.70;;;;;;;;;;5084403;28;20055;-61
2022/10/26 00:31:48;;;;;;;7.57;5.60;;;;;;;;;;5080142;28;20478;-60
2022/10/26 00:34:14;;;;;;;9.32;5.75;;;;;;;;;;5077444;28;20079;-61
2022/10/26 00:36:41;;;;;;;11.02;6.40;;;;;;;;;;5065683;28;20440;-62
2022/10/26 00:39:11;;;;;;;9.48;6.57;;;;;;;;;;5082377;28;20059;-61
2022/10/26 00:41:38;;;;;;;11.20;6.28;;;;;;;;;;5077686;28;20064;-61
2022/10/26 00:44:22;;;;;;;12.65;6.32;;;;;;;;;;5074735;28;20059;-61
2022/10/26 00:46:49;;;;;;;7.50;5.88;;;;;;;;;;5088197;28;20147;-61
2022/10/26 00:49:19;;;;;;;11.40;6.38;;;;;;;;;;5083476;28;20059;-62
2022/10/26 00:51:49;;;;;;;11.02;5.47;;;;;;;;;;5086071;28;20494;-61
2022/10/26 00:54:17;;;;;;;8.70;5.43;;;;;;;;;;5074466;28;20565;-61
2022/10/26 00:56:44;;;;;;;10.27;5.75;;;;;;;;;;5081144;28;20052;-61
2022/10/26 00:59:12;;;;;;;14.82;6.65;;;;;;;;;;5087143;28;20045;-60
2022/10/26 01:01:39;;;;;;;9.15;6.18;;;;;;;;;;5069759;28;20045;-60
2022/10/26 01:04:06;;;;;;;11.35;5.57;;;;;;;;;;5080266;28;20168;-60
2022/10/26 01:06:33;;;;;;;9.10;5.57;;;;;;;;;;5086427;28;20148;-61
2022/10/26 01:08:59;;;;;;;9.68;6.30;;;;;;;;;;5098196;28;20041;-61
2022/10/26 01:11:25;;;;;;;16.83;8.45;;;;;;;;;;5083035;28;20048;-62
2022/10/26 01:13:52;;;;;;;9.02;5.00;;;;;;;;;;5087686;28;20048;-61
2022/10/26 01:16:28;;;;;;;11.15;6.10;;;;;;;;;;5080738;28;20060;-61
2022/10/26 01:18:54;;;;;;;;;;;;;;;;;;5087505;28;20049;-60
2022/10/26 01:21:29;;;;;;;16.83;5.55;;;;;;;;;;5081705;28;47278;-61
2022/10/26 01:24:10;;;;;;;7.45;5.00;;;;;;;;;;5074625;28;20060;-61
2022/10/26 01:26:50;;;;;;;9.70;5.40;;;;;;;;;;5080025;28;20053;-61
2022/10/26 01:29:20;;;;;;;8.88;4.40;;;;;;;;;;5080780;28;20570;-61
2022/10/26 01:32:07;;;;;;;8.70;4.97;;;;;;;;;;5085570;28;20502;-61
2022/10/26 01:34:37;;;;;;;8.43;4.07;;;;;;;;;;5075740;28;20124;-62
2022/10/26 01:37:10;;;;;;;10.60;4.55;;;;;;;;;;5077139;28;20052;-61
2022/10/26 01:39:40;;;;;;;11.25;4.68;;;;;;;;;;5086159;28;20056;-61
2022/10/26 01:42:07;;;;;;;7.57;4.50;;;;;;;;;;5086617;28;20056;-62
2022/10/26 01:44:41;;;;;;;7.15;4.63;;;;;;;;;;5086270;28;20568;-61
2022/10/26 01:47:12;;;;;;;9.95;4.65;;;;;;;;;;5079950;28;20557;-62
2022/10/26 01:49:41;;;;;;;10.32;4.80;;;;;;;;;;5085934;28;20512;-62
2022/10/26 01:52:08;;;;;;;8.90;4.68;;;;;;;;;;5087969;28;20048;-61
2022/10/26 01:54:35;;;;;;;10.98;4.15;;;;;;;;;;5076471;28;20049;-61
2022/10/26 01:57:10;;;;;;;7.93;4.55;;;;;;;;;;5064132;28;20061;-61
2022/10/26 01:59:56;;;;;;;5.13;4.25;;;;;;;;;;5073268;28;20521;-61
2022/10/26 02:02:35;;;;;;;8.50;4.40;;;;;;;;;;5073071;28;20496;-62
2022/10/26 02:05:14;;;;;;;9.98;4.47;;;;;;;;;;5083390;27;20049;-62
2022/10/26 02:07:40;;;;;;;10.25;4.97;;;;;;;;;;5073759;28;20057;-64
2022/10/26 02:10:17;;;;;;;8.15;5.00;;;;;;;;;;5079681;28;20494;-61
2022/10/26 02:12:47;;;;;;;11.18;4.47;;;;;;;;;;5071440;28;20597;-62
2022/10/26 02:15:21;;;;;;;8.43;4.88;;;;;;;;;;5083389;28;20056;-62
2022/10/26 02:17:57;;;;;;;9.93;4.97;;;;;;;;;;5074181;28;20063;-61
2022/10/26 02:20:26;;;;;;;12.05;4.97;;;;;;;;;;5080899;28;20059;-61
2022/10/26 02:22:54;;;;;;;8.48;4.63;;;;;;;;;;5083390;28;20056;-61
2022/10/26 02:25:26;;;;;;;7.38;5.20;;;;;;;;;;5083340;28;20044;-63
2022/10/26 02:27:55;;;;;;;9.95;4.97;;;;;;;;;;5082953;28;20056;-61
2022/10/26 02:30:21;;;;;;;7.50;5.25;;;;;;;;;;5074982;28;20056;-62
2022/10/26 02:32:50;;;;;;;10.02;4.78;;;;;;;;;;5078327;28;20048;-61
2022/10/26 02:35:19;;;;;;;8.75;5.32;;;;;;;;;;5065183;28;20057;-61
2022/10/26 02:37:46;;;;;;;10.25;5.60;;;;;;;;;;5073259;28;20045;-61
2022/10/26 02:40:15;;;;;;;8.02;5.25;;;;;;;;;;5081886;28;20534;-62
2022/10/26 02:42:44;;;;;;;9.05;4.88;;;;;;;;;;5082622;28;20049;-61
2022/10/26 02:45:13;;;;;;;5.25;4.25;;;;;;;;;;5077328;28;20060;-61
2022/10/26 02:47:39;;;;;;;9.48;5.25;;;;;;;;;;5082250;28;20052;-61
2022/10/26 02:50:06;;;;;;;7.60;4.93;;;;;;;;;;5069819;28;20559;-62
2022/10/26 02:52:47;;;;;;;5.68;4.95;;;;;;;;;;5067671;28;20553;-61
2022/10/26 02:55:20;;;;;;;7.20;5.25;;;;;;;;;;5070818;28;20591;-62
2022/10/26 02:57:50;;;;;;;7.40;4.93;;;;;;;;;;5068716;28;20043;-62
2022/10/26 03:00:17;;;;;;;10.77;5.03;;;;;;;;;;5076082;28;20048;-61
2022/10/26 03:02:44;;;;;;;7.72;4.32;;;;;;;;;;5084155;28;20049;-61
2022/10/26 03:05:19;;;;;;;11.57;4.95;;;;;;;;;;5082760;28;20080;-62
2022/10/26 03:07:45;;;;;;;7.38;5.43;;;;;;;;;;5076674;28;20064;-62
2022/10/26 03:10:11;;;;;;;10.68;4.80;;;;;;;;;;5070453;28;20535;-62
2022/10/26 03:12:38;;;;;;;9.88;5.03;;;;;;;;;;5070709;28;20045;-61
2022/10/26 03:15:04;;;;;;;12.27;5.30;;;;;;;;;;5076654;28;20052;-62
2022/10/26 03:17:30;;;;;;;8.65;5.05;;;;;;;;;;5071249;28;20040;-61
2022/10/26 03:19:57;;;;;;;7.15;5.35;;;;;;;;;;5079456;28;20048;-62
2022/10/26 03:22:23;;;;;;;9.65;5.38;;;;;;;;;;5079649;28;20099;-62
2022/10/26 03:24:49;;;;;;;10.57;5.75;;;;;;;;;;5081422;28;20091;-61
2022/10/26 03:27:16;;;;;;;9.85;5.45;;;;;;;;;;5078441;28;20056;-61
2022/10/26 03:29:42;;;;;;;13.27;5.25;;;;;;;;;;5071909;28;20453;-62
2022/10/26 03:32:08;;;;;;;10.77;5.10;;;;;;;;;;5082309;28;20087;-62
2022/10/26 03:34:35;;;;;;;11.07;5.00;;;;;;;;;;5074575;28;20540;-61
2022/10/26 03:37:01;;;;;;;7.72;5.45;;;;;;;;;;5070842;28;20102;-61
2022/10/26 03:39:27;;;;;;;10.23;5.25;;;;;;;;;;5079161;28;20048;-61
2022/10/26 03:41:58;;;;;;;9.23;4.95;;;;;;;;;;5076634;28;20053;-62
2022/10/26 03:44:24;;;;;;;9.63;5.35;;;;;;;;;;5063896;28;20427;-63
2022/10/26 03:46:51;;;;;;;6.20;4.45;;;;;;;;;;5064697;28;20052;-62
2022/10/26 03:49:17;;;;;;;7.63;4.78;;;;;;;;;;5068328;28;20053;-61
2022/10/26 03:51:43;;;;;;;13.10;5.18;;;;;;;;;;5072470;28;20049;-61
2022/10/26 03:54:10;;;;;;;7.20;5.53;;;;;;;;;;5077423;28;20064;-61
2022/10/26 03:56:36;;;;;;;11.57;5.97;;;;;;;;;;5077927;28;20106;-63
2022/10/26 03:59:03;;;;;;;11.10;5.57;;;;;;;;;;5078247;28;20068;-61
2022/10/26 04:01:29;;;;;;;8.48;5.20;;;;;;;;;;5078619;28;20056;-61
2022/10/26 04:03:55;;;;;;;7.43;5.82;;;;;;;;;;5064465;28;20052;-61
2022/10/26 04:06:22;;;;;;;9.15;5.32;;;;;;;;;;5062652;28;20144;-61
2022/10/26 04:08:49;;;;;;;14.88;5.95;;;;;;;;;;5071594;28;20045;-61
2022/10/26 04:11:15;;;;;;;11.40;5.68;;;;;;;;;;5077898;28;20055;-61
2022/10/26 04:13:41;;;;;;;10.77;6.72;;;;;;;;;;5070413;28;20509;-61
2022/10/26 04:16:07;;;;;;;6.75;4.75;;;;;;;;;;5080059;28;20057;-61
2022/10/26 04:18:34;;;;;;;9.00;6.13;;;;;;;;;;5078265;28;20052;-61
2022/10/26 04:21:01;;;;;;;11.23;5.45;;;;;;;;;;5082639;28;20063;-62
2022/10/26 04:23:27;;;;;;;7.22;4.90;;;;;;;;;;5069888;28;20049;-63
2022/10/26 04:25:53;;;;;;;13.95;5.68;;;;;;;;;;5078002;28;20059;-60
2022/10/26 04:28:20;;;;;;;5.80;5.00;;;;;;;;;;5085073;28;20422;-62
2022/10/26 04:30:46;;;;;;;17.77;5.72;;;;;;;;;;5065844;28;20598;-62
2022/10/26 04:33:12;;;;;;;7.38;5.13;;;;;;;;;;5081071;28;20103;-61
2022/10/26 04:35:39;;;;;;;8.13;5.28;;;;;;;;;;5070394;28;20053;-61
2022/10/26 04:38:06;;;;;;;11.40;5.30;;;;;;;;;;5075053;28;20048;-62
2022/10/26 04:40:33;;;;;;;8.90;5.57;;;;;;;;;;5067652;28;20064;-61
2022/10/26 04:42:59;;;;;;;8.15;5.32;;;;;;;;;;5071542;28;20060;-60
2022/10/26 04:45:27;;;;;;;6.30;4.60;;;;;;;;;;5082642;28;20059;-61
2022/10/26 04:48:00;;;;;;;8.98;4.70;;;;;;;;;;5096579;28;20070;-61
2022/10/26 04:50:26;;;;;;;9.95;4.80;;;;;;;;;;5074734;28;20052;-63
2022/10/26 04:52:53;;;;;;;6.85;4.85;;;;;;;;;;5066444;28;20064;-61
2022/10/26 04:55:20;;;;;;;7.70;4.78;;;;;;;;;;5079937;28;20048;-62
2022/10/26 04:57:46;;;;;;;6.25;4.57;;;;;;;;;;5081465;28;20079;-61
2022/10/26 05:00:13;;;;;;;14.65;5.40;;;;;;;;;;5083811;27;20062;-62
2022/10/26 05:02:39;;;;;;;8.13;4.60;;;;;;;;;;5074126;28;20568;-61
2022/10/26 05:05:06;;;;;;;8.98;4.95;;;;;;;;;;5069266;28;20526;-61
2022/10/26 05:07:36;;;;;;;11.45;5.13;;;;;;;;;;5074699;28;20049;-61
2022/10/26 05:10:03;;;;;;;11.45;4.88;;;;;;;;;;5070277;28;20426;-62
2022/10/26 05:12:29;;;;;;;13.80;5.10;;;;;;;;;;5074789;28;20518;-61
2022/10/26 05:14:57;;;;;;;10.00;5.25;;;;;;;;;;5079928;28;20048;-61
2022/10/26 05:17:24;;;;;;;11.90;5.03;;;;;;;;;;5083084;28;20510;-62
2022/10/26 05:19:59;;;;;;;9.10;4.60;;;;;;;;;;5072489;28;20082;-61
2022/10/26 05:22:25;;;;;;;9.03;4.77;;;;;;;;;;5067792;28;20049;-62
2022/10/26 05:24:51;;;;;;;8.68;4.90;;;;;;;;;;5074436;28;20099;-61
2022/10/26 05:27:18;;;;;;;10.05;4.82;;;;;;;;;;5070178;28;20060;-62
2022/10/26 05:29:44;;;;;;;14.25;5.15;;;;;;;;;;5075076;28;20057;-62
2022/10/26 05:32:10;;;;;;;8.95;5.53;;;;;;;;;;5066213;28;20277;-61
2022/10/26 05:34:37;;;;;;;7.63;5.32;;;;;;;;;;5094522;28;20041;-61
2022/10/26 05:37:06;;;;;;;10.75;4.90;;;;;;;;;;5089790;28;20052;-61
2022/10/26 05:39:33;;;;;;;11.85;6.05;;;;;;;;;;5085148;28;20049;-61
2022/10/26 05:41:59;;;;;;;8.95;5.20;;;;;;;;;;5088876;28;20055;-62
2022/10/26 05:44:26;;;;;;;9.30;4.63;;;;;;;;;;5082879;28;20055;-62
2022/10/26 05:46:52;;;;;;;8.77;4.97;;;;;;;;;;5085065;28;20102;-61
2022/10/26 05:49:18;;;;;;;9.13;5.53;;;;;;;;;;5084603;28;20049;-61
2022/10/26 05:51:45;;;;;;;12.10;5.35;;;;;;;;;;5086150;28;20066;-61
2022/10/26 05:54:11;;;;;;;10.98;5.18;;;;;;;;;;5084039;28;20511;-62
2022/10/26 05:56:40;;;;;;;13.57;4.97;;;;;;;;;;5079347;28;20057;-61
2022/10/26 05:59:10;;;;;;;12.57;5.38;;;;;;;;;;5085749;28;20361;-62
2022/10/26 06:01:37;;;;;;;8.07;4.85;;;;;;;;;;5074009;28;20049;-61
2022/10/26 06:04:09;;;;;;;11.88;5.30;;;;;;;;;;5088978;28;20063;-62
2022/10/26 06:06:38;;;;;;;12.63;4.32;;;;;;;;;;5082467;28;20428;-61
2022/10/26 06:09:05;;;;;;;11.90;5.30;;;;;;;;;;5083973;28;20064;-61
2022/10/26 06:11:32;;;;;;;9.68;5.55;;;;;;;;;;5083361;28;20048;-62
2022/10/26 06:14:00;;;;;;;13.35;4.78;;;;;;;;;;5075165;28;20049;-62
2022/10/26 06:16:30;;;;;;;13.10;5.05;;;;;;;;;;5064860;28;20511;-61
2022/10/26 06:19:23;;;;;;;10.55;4.97;;;;;;;;;;5079216;28;20056;-62
2022/10/26 06:22:08;;;;;;;10.25;5.30;;;;;;;;;;5055511;28;20545;-61
2022/10/26 06:24:45;;;;;;;7.25;4.60;;;;;;;;;;5083346;28;20053;-61
2022/10/26 06:27:30;;;;;;;9.25;5.05;;;;;;;;;;5082668;28;20092;-62
2022/10/26 06:29:56;;;;;;;13.10;5.43;;;;;;;;;;5073033;28;20049;-62
2022/10/26 06:32:23;;;;;;;9.63;5.13;;;;;;;;;;5071724;28;20056;-61
2022/10/26 06:34:51;;;;;;;12.95;5.00;;;;;;;;;;5085506;28;20518;-61
2022/10/26 06:37:18;;;;;;;11.00;5.35;;;;;;;;;;5084337;28;20060;-62
2022/10/26 06:39:45;;;;;;;10.00;5.20;;;;;;;;;;5082560;28;20048;-61
2022/10/26 06:42:16;;;;;;;10.55;5.88;;;;;;;;;;5084169;28;20080;-62
2022/10/26 06:44:43;;;;;;;8.55;5.60;;;;;;;;;;5083900;28;20443;-61
2022/10/26 06:47:14;;;;;;;10.35;5.80;;;;;;;;;;5084854;28;20055;-61
2022/10/26 06:49:59;;;;;;;10.45;5.22;;;;;;;;;;5082496;28;20052;-63
2022/10/26 06:52:32;;;;;;;6.40;4.57;;;;;;;;;;5090481;28;20037;-62
2022/10/26 06:54:59;;;;;;;11.57;4.95;;;;;;;;;;5081787;27;20045;-62
2022/10/26 06:57:35;;;;;;;10.25;5.07;;;;;;;;;;5078960;28;20053;-62
2022/10/26 07:00:06;;;;;;;8.80;5.20;;;;;;;;;;5086244;28;20056;-62
2022/10/26 07:02:32;;;;;;;9.95;4.70;;;;;;;;;;5092941;28;20059;-62
2022/10/26 07:04:59;;;;;;;13.50;4.80;;;;;;;;;;5091212;27;20110;-62
2022/10/26 07:07:26;;;;;;;6.63;4.45;;;;;;;;;;5084062;28;20063;-63
2022/10/26 07:09:52;;;;;;;8.55;5.10;;;;;;;;;;5076613;28;20544;-62
2022/10/26 07:12:19;;;;;;;9.65;4.88;;;;;;;;;;5079457;28;20497;-61
2022/10/26 07:14:45;;;;;;;10.10;4.57;;;;;;;;;;5083833;28;20053;-62
2022/10/26 07:17:11;;;;;;;10.57;5.40;;;;;;;;;;5083847;28;20056;-60
2022/10/26 07:19:39;;;;;;;9.85;5.20;;;;;;;;;;5082581;28;20499;-62
2022/10/26 07:22:05;;;;;;;7.70;4.70;;;;;;;;;;5083161;28;20064;-61
2022/10/26 07:24:31;;;;;;;8.10;5.28;;;;;;;;;;5083331;28;20494;-61
2022/10/26 07:26:58;;;;;;;10.70;4.80;;;;;;;;;;5084217;28;20056;-61
2022/10/26 07:29:25;;;;;;;7.07;4.80;;;;;;;;;;5082047;28;20049;-63
2022/10/26 07:31:52;;;;;;;16.52;5.40;;;;;;;;;;5069958;28;20491;-62
2022/10/26 07:34:19;;;;;;;10.85;5.30;;;;;;;;;;5083828;28;20056;-62
2022/10/26 07:36:45;;;;;;;10.25;4.60;;;;;;;;;;5074209;28;20056;-62
2022/10/26 07:39:11;;;;;;;6.32;4.30;;;;;;;;;;5085522;28;20048;-61
2022/10/26 07:41:38;;;;;;;9.98;5.53;;;;;;;;;;5085173;28;20048;-61
2022/10/26 07:44:04;;;;;;;10.90;5.00;;;;;;;;;;5082727;28;20052;-61
2022/10/26 07:46:30;;;;;;;18.20;5.15;;;;;;;;;;5083686;28;20049;-62
2022/10/26 07:48:57;;;;;;;7.82;4.63;;;;;;;;;;5082914;28;20514;-61
2022/10/26 07:51:24;;;;;;;14.43;5.57;;;;;;;;;;5079349;28;20135;-60
2022/10/26 07:53:50;;;;;;;10.77;5.35;;;;;;;;;;5085251;28;20513;-62
2022/10/26 07:56:17;;;;;;;10.18;5.05;;;;;;;;;;5080964;28;20168;-61
2022/10/26 07:58:44;;;;;;;7.35;4.28;;;;;;;;;;5080286;28;20052;-61
2022/10/26 08:01:11;;;;;;;16.42;5.22;;;;;;;;;;5081314;28;20577;-61
2022/10/26 08:03:37;;;;;;;11.95;5.78;;;;;;;;;;5081600;28;20083;-62
2022/10/26 08:06:04;;;;;;;15.32;5.35;;;;;;;;;;5071332;28;20052;-62
2022/10/26 08:08:31;;;;;;;10.00;5.03;;;;;;;;;;5064424;28;20059;-62
2022/10/26 08:10:57;;;;;;;9.75;5.78;;;;;;;;;;5073650;28;20053;-63
2022/10/26 08:13:24;;;;;;;6.13;4.75;;;;;;;;;;5075340;28;20481;-62
2022/10/26 08:15:57;;;;;;;7.65;4.78;;;;;;;;;;5080908;28;20079;-61
2022/10/26 08:18:24;;;;;;;13.00;4.72;;;;;;;;;;5076467;28;20056;-62
2022/10/26 08:20:50;;;;;;;13.25;4.20;;;;;;;;;;5079069;28;20574;-61
2022/10/26 08:23:17;;;;;;;7.07;4.47;;;;;;;;;;5076930;28;20059;-63
2022/10/26 08:25:44;;;;;;;8.30;4.22;;;;;;;;;;5077368;28;20053;-62
2022/10/26 08:28:10;;;;;;;6.00;4.07;;;;;;;;;;5078896;28;20565;-62
2022/10/26 08:30:36;;;;;;;8.57;4.65;;;;;;;;;;5068793;28;20052;-63
2022/10/26 08:33:03;;;;;;;9.60;4.40;;;;;;;;;;5081034;28;20045;-62
2022/10/26 08:35:31;;;;;;;7.40;3.90;;;;;;;;;;5074915;28;20048;-63
2022/10/26 08:37:57;;;;;;;6.55;4.65;;;;;;;;;;5072474;28;20053;-63
2022/10/26 08:40:25;;;;;;;4.80;3.67;;;;;;;;;;5077712;28;20061;-61
2022/10/26 08:42:53;;;;;;;13.38;4.13;;;;;;;;;;5072697;28;20063;-61
2022/10/26 08:45:25;;;;;;;6.97;4.00;;;;;;;;;;5090352;27;20060;-61
2022/10/26 08:48:03;;;;;;;5.63;3.42;;;;;;;;;;5075625;28;20059;-60
2022/10/26 08:50:36;;;;;;;11.00;3.78;;;;;;;;;;5078919;28;20514;-60
2022/10/26 08:53:07;;;;;;;6.28;3.72;;;;;;;;;;5074664;28;20063;-62
2022/10/26 08:55:40;;;;;;;10.00;3.45;;;;;;;;;;5078361;28;20075;-62
2022/10/26 08:58:17;;;;;;;5.07;3.28;;;;;;;;;;5078581;28;20044;-63
2022/10/26 09:00:46;;;;;;;10.23;3.53;;;;;;;;;;5067372;28;20057;-62
2022/10/26 09:03:13;;;;;;;7.90;4.28;;;;;;;;;;5069836;28;20044;-60
2022/10/26 09:05:46;;;;;;;7.68;4.10;;;;;;;;;;5082429;28;20060;-60
2022/10/26 09:08:41;;;;;;;6.80;3.60;;;;;;;;;;5093188;28;20498;-62
2022/10/26 09:11:17;;;;;;;6.38;3.00;;;;;;;;;;5051500;28;20380;-61
2022/10/26 09:13:43;;;;;;;;;;;;;;;;;;5065521;28;20167;-61
2022/10/26 09:16:13;;;;;;;6.50;3.80;;;;;;;;;;5069231;28;47126;-60
2022/10/26 09:18:46;;;;;;;4.53;3.05;;;;;;;;;;5082434;28;20057;-61
2022/10/26 09:21:39;;;;;;;5.40;3.33;;;;;;;;;;5086521;27;20571;-62
2022/10/26 09:24:13;;;;;;;7.45;3.65;;;;;;;;;;5074710;28;20076;-60
2022/10/26 09:26:53;;;;;;;6.57;3.97;;;;;;;;;;5078542;28;20048;-61
2022/10/26 09:29:32;;;;;;;6.97;3.70;;;;;;;;;;5083876;28;20048;-61
2022/10/26 09:32:00;;;;;;;10.43;5.20;;;;;;;;;;5083157;28;20049;-62
2022/10/26 09:34:40;;;;;;;6.07;3.45;;;;;;;;;;5086463;28;20048;-61
2022/10/26 09:37:12;;;;;;;7.85;3.70;;;;;;;;;;5089610;28;20052;-60
2022/10/26 09:39:41;;;;;;;5.07;3.67;;;;;;;;;;5083445;28;20122;-62
2022/10/26 09:42:14;;;;;;;6.30;3.45;;;;;;;;;;5084666;28;20569;-61
2022/10/26 09:44:49;;;;;;;9.13;2.90;;;;;;;;;;5084281;28;20051;-61
2022/10/26 09:47:16;;;;;;;8.75;3.22;;;;;;;;;;5083019;28;20055;-62
2022/10/26 09:49:51;;;;;;;5.68;3.45;;;;;;;;;;5085137;28;20057;-61
2022/10/26 09:52:17;;;;;;;6.32;2.75;;;;;;;;;;5093087;27;20514;-61
2022/10/26 09:54:44;;;;;;;8.85;3.30;;;;;;;;;;5086726;28;20048;-61
2022/10/26 09:57:13;;;;;;;5.43;3.63;;;;;;;;;;5083946;28;20056;-61
2022/10/26 09:59:40;;;;;;;9.55;3.03;;;;;;;;;;5085871;28;20044;-62
2022/10/26 10:02:25;;;;;;;4.88;2.95;;;;;;;;;;5085053;28;20075;-62
2022/10/26 10:04:51;;;;;;;7.78;3.10;;;;;;;;;;5085302;28;20087;-63
2022/10/26 10:07:18;;;;;;;10.05;3.05;;;;;;;;;;5085020;28;20061;-61
2022/10/26 10:10:04;;;;;;;8.85;3.28;;;;;;;;;;5083773;28;20083;-62
2022/10/26 10:12:30;;;;;;;6.93;2.95;;;;;;;;;;5086111;28;20052;-60
2022/10/26 10:14:57;;;;;;;5.75;3.00;;;;;;;;;;5086460;28;20060;-61
2022/10/26 10:17:24;;;;;;;6.82;2.92;;;;;;;;;;5081983;28;20056;-62
2022/10/26 10:19:51;;;;;;;6.72;2.63;;;;;;;;;;5082107;28;20055;-62
2022/10/26 10:22:21;;;;;;;5.97;3.03;;;;;;;;;;5079402;28;20056;-61
2022/10/26 10:24:54;;;;;;;8.85;2.90;;;;;;;;;;5084488;28;20048;-61
2022/10/26 10:27:22;;;;;;;12.00;3.42;;;;;;;;;;5082232;28;20060;-61
2022/10/26 10:29:49;;;;;;;5.93;3.13;;;;;;;;;;5082164;28;20095;-61
2022/10/26 10:32:16;;;;;;;9.32;3.10;;;;;;;;;;5082876;28;20586;-61
2022/10/26 10:34:43;;;;;;;5.32;2.92;;;;;;;;;;5083621;28;20048;-61
2022/10/26 10:37:24;;;;;;;5.38;3.17;;;;;;;;;;5089158;28;20479;-61
2022/10/26 10:39:55;;;;;;;11.15;3.20;;;;;;;;;;5080882;28;20056;-61
2022/10/26 10:42:28;;;;;;;6.25;2.88;;;;;;;;;;5082590;28;20103;-62
2022/10/26 10:44:56;;;;;;;5.50;2.70;;;;;;;;;;5084473;28;20533;-62
2022/10/26 10:47:27;;;;;;;3.53;2.65;;;;;;;;;;5083496;28;20041;-61
2022/10/26 10:50:02;;;;;;;8.20;3.25;;;;;;;;;;5084878;28;20099;-61
2022/10/26 10:52:30;;;;;;;6.07;3.25;;;;;;;;;;5083660;28;20056;-61
2022/10/26 10:55:12;;;;;;;8.10;3.25;;;;;;;;;;5085968;28;20064;-61
2022/10/26 10:57:38;;;;;;;6.47;3.10;;;;;;;;;;5078760;28;20102;-60
2022/10/26 11:00:07;;;;;;;15.73;3.70;;;;;;;;;;5083503;28;20434;-68
2022/10/26 11:02:52;;;;;;;9.63;4.07;;;;;;;;;;5083756;28;20367;-63
2022/10/26 11:05:18;;;;;;;8.40;2.83;;;;;;;;;;5080899;28;20045;-62
2022/10/26 11:08:06;;;;;;;8.45;3.13;;;;;;;;;;5084033;28;20057;-62
2022/10/26 11:10:38;;;;;;;8.05;4.72;;;;;;;;;;5084279;28;20044;-62
2022/10/26 11:13:09;;;;;;;7.18;3.40;;;;;;;;;;5083098;28;20055;-62
2022/10/26 11:15:37;;;;;;;7.07;3.30;;;;;;;;;;5082027;28;20514;-61
2022/10/26 11:18:06;;;;;;;5.00;3.40;;;;;;;;;;5082087;28;20048;-63
2022/10/26 11:20:35;;;;;;;8.23;4.18;;;;;;;;;;5083201;28;20110;-61
2022/10/26 11:23:08;;;;;;;10.05;4.38;;;;;;;;;;5104032;28;20055;-61
2022/10/26 11:25:34;;;;;;;11.25;4.07;;;;;;;;;;5081087;28;20059;-62
2022/10/26 11:28:24;;;;;;;8.40;3.65;;;;;;;;;;5081358;28;20059;-62
2022/10/26 11:30:55;;;;;;;11.50;3.95;;;;;;;;;;5017727;28;20057;-63
2022/10/26 11:33:25;;;;;;;4.00;3.10;;;;;;;;;;5019740;28;20046;-64
2022/10/26 11:35:56;;;;;;;8.77;3.60;;;;;;;;;;5020191;28;20058;-63
2022/10/26 11:38:23;;;;;;;7.93;3.88;;;;;;;;;;5014763;28;20049;-62
2022/10/26 11:41:23;;;;;;;13.07;3.67;;;;;;;;;;5016308;28;20058;-63
2022/10/26 11:44:07;;;;;;;3.63;3.15;;;;;;;;;;5022026;28;20638;-64
2022/10/26 11:46:40;;;;;;;5.05;2.75;;;;;;;;;;5021092;28;20117;-62
2022/10/26 11:49:12;;;;;;;6.28;2.85;;;;;;;;;;5020093;28;20570;-64
2022/10/26 11:51:38;;;;;;;4.00;2.80;;;;;;;;;;5020748;28;20182;-63
2022/10/26 11:54:11;;;;;;;2.90;2.50;;;;;;;;;;5020602;28;20050;-62
2022/10/26 11:56:40;;;;;;;3.22;2.20;;;;;;;;;;5016430;28;20053;-64
2022/10/26 11:59:13;;;;;;;9.57;2.60;;;;;;;;;;5016856;28;20060;-65
2022/10/26 12:01:40;;;;;;;5.20;2.55;;;;;;;;;;5015581;28;20551;-64
2022/10/26 12:04:06;;;;;;;6.68;3.00;;;;;;;;;;5019593;28;20046;-63
2022/10/26 12:06:33;;;;;;;4.65;2.88;;;;;;;;;;5018628;28;20519;-64
2022/10/26 12:09:12;;;;;;;4.35;2.95;;;;;;;;;;5063402;28;20060;-63
2022/10/26 12:11:49;;;;;;;6.05;2.58;;;;;;;;;;5091552;28;20052;-62
2022/10/26 12:14:22;;;;;;;5.68;2.53;;;;;;;;;;5080528;28;20061;-63
2022/10/26 12:16:54;;;;;;;5.30;2.33;;;;;;;;;;5079058;28;20194;-63
2022/10/26 12:19:27;;;;;;;5.03;2.60;;;;;;;;;;5062655;28;20518;-64
2022/10/26 12:21:54;;;;;;;7.13;2.58;;;;;;;;;;5065321;28;20063;-63
2022/10/26 12:24:20;;;;;;;2.97;2.17;;;;;;;;;;5080085;28;20083;-64
2022/10/26 12:26:51;;;;;;;5.07;2.33;;;;;;;;;;5090008;28;20060;-63
2022/10/26 12:29:28;;;;;;;4.72;2.45;;;;;;;;;;5086714;28;20087;-63
2022/10/26 12:31:55;;;;;;;6.30;2.25;;;;;;;;;;5083307;28;20053;-62
2022/10/26 12:34:23;;;;;;;4.55;2.17;;;;;;;;;;5080952;28;20059;-62
2022/10/26 12:36:55;;;;;;;6.05;2.30;;;;;;;;;;5079026;28;20123;-63
2022/10/26 12:39:29;;;;;;;4.47;2.20;;;;;;;;;;5086267;28;20052;-63
2022/10/26 12:41:56;;;;;;;6.57;2.40;;;;;;;;;;5083149;28;20048;-62
2022/10/26 12:44:41;;;;;;;3.22;1.95;;;;;;;;;;5081376;28;20068;-64
2022/10/26 12:47:08;;;;;;;4.95;2.30;;;;;;;;;;5081546;28;20057;-62
2022/10/26 12:49:54;;;;;;;4.22;1.90;;;;;;;;;;5082877;28;20033;-64
2022/10/26 12:52:21;;;;;;;3.15;1.70;;;;;;;;;;5078657;28;20055;-63
2022/10/26 12:54:53;;;;;;;5.40;1.80;;;;;;;;;;5074180;28;20508;-62
2022/10/26 12:57:27;;;;;;;2.60;1.63;;;;;;;;;;5077428;28;20048;-63
2022/10/26 12:59:59;;;;;;;5.93;2.13;;;;;;;;;;5076646;28;20064;-63
2022/10/26 13:02:44;;;;;;;10.93;2.05;;;;;;;;;;5079198;28;20052;-61
2022/10/26 13:05:16;;;;;;;6.95;2.28;;;;;;;;;;5081742;28;20600;-61
2022/10/26 13:07:43;;;;;;;5.13;2.28;;;;;;;;;;5083054;28;20049;-63
2022/10/26 13:10:09;;;;;;;7.28;2.25;;;;;;;;;;5082173;28;20053;-64
2022/10/26 13:12:55;;;;;;;5.63;2.33;;;;;;;;;;5082874;28;20503;-61
2022/10/26 13:15:25;;;;;;;3.30;2.15;;;;;;;;;;5082594;28;20055;-65
2022/10/26 13:17:56;;;;;;;5.28;2.25;;;;;;;;;;5083259;28;20446;-64
2022/10/26 13:20:23;;;;;;;5.68;2.20;;;;;;;;;;5083256;28;20059;-63
2022/10/26 13:22:49;;;;;;;6.25;2.50;;;;;;;;;;5080441;28;20053;-62
2022/10/26 13:25:22;;;;;;;4.90;2.05;;;;;;;;;;5084067;28;20064;-61
2022/10/26 13:28:00;;;;;;;7.97;2.58;;;;;;;;;;5081784;28;20068;-63
2022/10/26 13:30:33;;;;;;;4.07;2.03;;;;;;;;;;5080948;28;20550;-62
2022/10/26 13:33:00;;;;;;;6.20;2.22;;;;;;;;;;5082082;28;20044;-61
2022/10/26 13:35:27;;;;;;;7.05;2.85;;;;;;;;;;5082169;28;20048;-62
2022/10/26 13:37:54;;;;;;;3.47;2.25;;;;;;;;;;5084676;28;20053;-64
2022/10/26 13:40:25;;;;;;;9.38;2.50;;;;;;;;;;5089284;28;20079;-63
2022/10/26 13:42:56;;;;;;;5.45;2.17;;;;;;;;;;5083250;28;20037;-64
2022/10/26 13:45:41;;;;;;;10.05;2.88;;;;;;;;;;5087905;28;20059;-61
2022/10/26 13:48:17;;;;;;;3.28;2.05;;;;;;;;;;5081877;28;20127;-62
2022/10/26 13:50:48;;;;;;;4.43;2.25;;;;;;;;;;5081998;28;20060;-62
2022/10/26 13:53:17;;;;;;;4.97;2.20;;;;;;;;;;5080228;28;20049;-62
2022/10/26 13:55:50;;;;;;;5.57;2.38;;;;;;;;;;5069478;28;20052;-63
2022/10/26 13:58:24;;;;;;;4.88;1.98;;;;;;;;;;5084199;28;20061;-63
2022/10/26 14:01:00;;;;;;;4.20;2.88;;;;;;;;;;5080459;28;20056;-62
2022/10/26 14:03:27;;;;;;;5.13;2.60;;;;;;;;;;5085784;28;20091;-62
2022/10/26 14:05:53;;;;;;;6.80;2.45;;;;;;;;;;5086268;28;20049;-63
2022/10/26 14:08:20;;;;;;;5.05;2.38;;;;;;;;;;5094493;28;20056;-61
2022/10/26 14:10:50;;;;;;;4.47;2.45;;;;;;;;;;5086408;28;20080;-62
2022/10/26 14:13:20;;;;;;;5.78;2.60;;;;;;;;;;5087628;28;20056;-61
2022/10/26 14:15:46;;;;;;;4.10;2.90;;;;;;;;;;5087043;28;20423;-63
2022/10/26 14:18:22;;;;;;;5.63;2.80;;;;;;;;;;5083794;28;20060;-61
2022/10/26 14:20:48;;;;;;;;;;;;;;;;;;5085782;28;20392;-62
2022/10/26 14:23:24;;;;;;;5.13;3.28;;;;;;;;;;5085417;28;46411;-62
2022/10/26 14:25:54;;;;;;;13.82;2.72;;;;;;;;;;5091910;28;20055;-61
2022/10/26 14:28:26;;;;;;;5.30;3.00;;;;;;;;;;5093415;28;20110;-63
2022/10/26 14:30:53;;;;;;;5.10;2.28;;;;;;;;;;5086900;28;20061;-63
2022/10/26 14:33:24;;;;;;;4.40;2.47;;;;;;;;;;5086065;28;20103;-62
2022/10/26 14:35:51;;;;;;;6.63;2.20;;;;;;;;;;5086464;28;20524;-61
2022/10/26 14:38:25;;;;;;;5.43;2.47;;;;;;;;;;5084798;28;20156;-61
2022/10/26 14:40:54;;;;;;;4.55;2.25;;;;;;;;;;5086058;28;20088;-63
2022/10/26 14:43:22;;;;;;;5.72;2.78;;;;;;;;;;5084944;28;20063;-63
2022/10/26 14:45:49;;;;;;;3.90;1.50;;;;;;;;;;5081707;28;20043;-63
2022/10/26 14:48:21;;;;;;;6.78;2.42;;;;;;;;;;5085429;28;20887;-62
2022/10/26 14:50:58;;;;;;;6.60;2.10;;;;;;;;;;5082105;28;20322;-61
2022/10/26 14:53:33;;;;;;;4.85;1.90;;;;;;;;;;5084713;28;20110;-61
2022/10/26 14:55:59;;;;;;;8.20;2.00;;;;;;;;;;5084714;28;20052;-64